sensor_id;sensor_type;location;lat;lon;timestamp;P1;durP1;ratioP1;P2;durP2;ratioP2
13933;SDS011;7039;52.168;9.866;2023-07-31T00:01:27;2.03;;;1.50;;
13933;SDS011;7039;52.168;9.866;2023-07-31T00:03:53;4.07;;;2.20;;
13933;SDS011;7039;52.168;9.866;2023-07-31T00:06:21;3.27;;;1.73;;
13933;SDS011;7039;52.168;9.866;2023-07-31T00:08:48;4.60;;;1.50;;
13933;SDS011;7039;52.168;9.866;2023-07-31T00:11:14;3.07;;;1.60;;
13933;SDS011;7039;52.168;9.866;2023-07-31T00:13:41;2.27;;;1.63;;
13933;SDS011;7039;52.168;9.866;2023-07-31T00:16:07;3.70;;;1.40;;
13933;SDS011;7039;52.168;9.866;2023-07-31T00:18:33;2.60;;;1.60;;
13933;SDS011;7039;52.168;9.866;2023-07-31T00:21:00;3.33;;;1.30;;
13933;SDS011;7039;52.168;9.866;2023-07-31T00:23:28;3.93;;;1.50;;
13933;SDS011;7039;52.168;9.866;2023-07-31T00:25:54;3.23;;;1.37;;
13933;SDS011;7039;52.168;9.866;2023-07-31T00:28:21;3.90;;;1.73;;
13933;SDS011;7039;52.168;9.866;2023-07-31T00:30:47;2.43;;;1.40;;
13933;SDS011;7039;52.168;9.866;2023-07-31T00:33:13;3.37;;;1.20;;
13933;SDS011;7039;52.168;9.866;2023-07-31T00:35:40;4.10;;;1.20;;
13933;SDS011;7039;52.168;9.866;2023-07-31T00:38:06;3.53;;;1.23;;
13933;SDS011;7039;52.168;9.866;2023-07-31T00:40:35;4.67;;;1.60;;
13933;SDS011;7039;52.168;9.866;2023-07-31T00:43:03;4.57;;;1.50;;
13933;SDS011;7039;52.168;9.866;2023-07-31T00:45:29;2.70;;;1.40;;
13933;SDS011;7039;52.168;9.866;2023-07-31T00:47:56;2.60;;;1.27;;
13933;SDS011;7039;52.168;9.866;2023-07-31T00:50:23;4.07;;;1.13;;
13933;SDS011;7039;52.168;9.866;2023-07-31T00:52:50;1.50;;;1.40;;
13933;SDS011;7039;52.168;9.866;2023-07-31T00:55:17;2.60;;;1.27;;
13933;SDS011;7039;52.168;9.866;2023-07-31T00:57:45;2.47;;;1.40;;
13933;SDS011;7039;52.168;9.866;2023-07-31T01:00:12;4.50;;;1.50;;
13933;SDS011;7039;52.168;9.866;2023-07-31T01:02:38;2.70;;;1.40;;
13933;SDS011;7039;52.168;9.866;2023-07-31T01:05:05;3.13;;;1.43;;
13933;SDS011;7039;52.168;9.866;2023-07-31T01:07:34;4.63;;;1.40;;
13933;SDS011;7039;52.168;9.866;2023-07-31T01:10:08;1.50;;;1.40;;
13933;SDS011;7039;52.168;9.866;2023-07-31T01:12:39;1.83;;;1.30;;
13933;SDS011;7039;52.168;9.866;2023-07-31T01:15:08;3.03;;;1.30;;
13933;SDS011;7039;52.168;9.866;2023-07-31T01:17:36;1.67;;;0.87;;
13933;SDS011;7039;52.168;9.866;2023-07-31T01:20:03;2.00;;;1.23;;
13933;SDS011;7039;52.168;9.866;2023-07-31T01:22:40;4.03;;;1.20;;
13933;SDS011;7039;52.168;9.866;2023-07-31T01:25:29;1.37;;;0.97;;
13933;SDS011;7039;52.168;9.866;2023-07-31T01:28:10;2.37;;;1.00;;
13933;SDS011;7039;52.168;9.866;2023-07-31T01:30:41;1.57;;;1.10;;
13933;SDS011;7039;52.168;9.866;2023-07-31T01:33:10;2.30;;;0.70;;
13933;SDS011;7039;52.168;9.866;2023-07-31T01:35:37;0.80;;;0.60;;
13933;SDS011;7039;52.168;9.866;2023-07-31T01:38:04;0.63;;;0.63;;
13933;SDS011;7039;52.168;9.866;2023-07-31T01:40:31;1.10;;;1.00;;
13933;SDS011;7039;52.168;9.866;2023-07-31T01:42:58;3.30;;;0.73;;
13933;SDS011;7039;52.168;9.866;2023-07-31T01:45:26;2.03;;;0.70;;
13933;SDS011;7039;52.168;9.866;2023-07-31T01:47:52;0.60;;;0.60;;
13933;SDS011;7039;52.168;9.866;2023-07-31T01:50:19;1.00;;;0.73;;
13933;SDS011;7039;52.168;9.866;2023-07-31T01:52:45;1.23;;;0.77;;
13933;SDS011;7039;52.168;9.866;2023-07-31T01:55:12;1.30;;;0.80;;
13933;SDS011;7039;52.168;9.866;2023-07-31T01:57:38;3.17;;;1.00;;
13933;SDS011;7039;52.168;9.866;2023-07-31T02:00:05;2.20;;;0.90;;
13933;SDS011;7039;52.168;9.866;2023-07-31T02:02:34;1.00;;;0.80;;
13933;SDS011;7039;52.168;9.866;2023-07-31T02:05:00;1.63;;;0.80;;
13933;SDS011;7039;52.168;9.866;2023-07-31T02:07:27;1.67;;;0.70;;
13933;SDS011;7039;52.168;9.866;2023-07-31T02:09:53;4.70;;;0.97;;
13933;SDS011;7039;52.168;9.866;2023-07-31T02:12:20;1.73;;;0.90;;
13933;SDS011;7039;52.168;9.866;2023-07-31T02:14:46;1.00;;;0.90;;
13933;SDS011;7039;52.168;9.866;2023-07-31T02:17:13;1.10;;;0.87;;
13933;SDS011;7039;52.168;9.866;2023-07-31T02:19:40;1.73;;;1.00;;
13933;SDS011;7039;52.168;9.866;2023-07-31T02:22:07;1.23;;;1.00;;
13933;SDS011;7039;52.168;9.866;2023-07-31T02:24:33;1.40;;;0.80;;
13933;SDS011;7039;52.168;9.866;2023-07-31T02:27:00;0.90;;;0.87;;
13933;SDS011;7039;52.168;9.866;2023-07-31T02:29:26;3.50;;;0.83;;
13933;SDS011;7039;52.168;9.866;2023-07-31T02:31:53;3.77;;;0.97;;
13933;SDS011;7039;52.168;9.866;2023-07-31T02:34:19;1.43;;;0.90;;
13933;SDS011;7039;52.168;9.866;2023-07-31T02:36:47;3.30;;;0.90;;
13933;SDS011;7039;52.168;9.866;2023-07-31T02:39:13;3.93;;;1.00;;
13933;SDS011;7039;52.168;9.866;2023-07-31T02:41:40;1.23;;;0.80;;
13933;SDS011;7039;52.168;9.866;2023-07-31T02:44:06;1.00;;;0.83;;
13933;SDS011;7039;52.168;9.866;2023-07-31T02:46:33;1.60;;;1.00;;
13933;SDS011;7039;52.168;9.866;2023-07-31T02:48:59;2.83;;;0.93;;
13933;SDS011;7039;52.168;9.866;2023-07-31T02:51:26;5.50;;;0.83;;
13933;SDS011;7039;52.168;9.866;2023-07-31T02:53:53;4.30;;;1.67;;
13933;SDS011;7039;52.168;9.866;2023-07-31T02:56:20;5.13;;;0.90;;
13933;SDS011;7039;52.168;9.866;2023-07-31T02:58:46;2.40;;;1.00;;
13933;SDS011;7039;52.168;9.866;2023-07-31T03:01:13;2.93;;;0.80;;
13933;SDS011;7039;52.168;9.866;2023-07-31T03:03:41;1.00;;;0.90;;
13933;SDS011;7039;52.168;9.866;2023-07-31T03:06:08;1.40;;;0.80;;
13933;SDS011;7039;52.168;9.866;2023-07-31T03:08:34;1.87;;;1.10;;
13933;SDS011;7039;52.168;9.866;2023-07-31T03:11:02;0.90;;;0.90;;
13933;SDS011;7039;52.168;9.866;2023-07-31T03:13:29;3.80;;;1.00;;
13933;SDS011;7039;52.168;9.866;2023-07-31T03:15:55;1.67;;;0.90;;
13933;SDS011;7039;52.168;9.866;2023-07-31T03:18:21;2.00;;;1.00;;
13933;SDS011;7039;52.168;9.866;2023-07-31T03:20:48;1.47;;;0.97;;
13933;SDS011;7039;52.168;9.866;2023-07-31T03:23:14;1.37;;;1.00;;
13933;SDS011;7039;52.168;9.866;2023-07-31T03:25:41;1.73;;;0.80;;
13933;SDS011;7039;52.168;9.866;2023-07-31T03:28:22;1.80;;;0.80;;
13933;SDS011;7039;52.168;9.866;2023-07-31T03:30:49;0.80;;;0.70;;
13933;SDS011;7039;52.168;9.866;2023-07-31T03:33:15;1.33;;;0.90;;
13933;SDS011;7039;52.168;9.866;2023-07-31T03:35:42;2.77;;;0.80;;
13933;SDS011;7039;52.168;9.866;2023-07-31T03:38:08;1.93;;;1.10;;
13933;SDS011;7039;52.168;9.866;2023-07-31T03:40:35;1.13;;;0.90;;
13933;SDS011;7039;52.168;9.866;2023-07-31T03:43:01;1.10;;;0.90;;
13933;SDS011;7039;52.168;9.866;2023-07-31T03:45:29;2.27;;;0.80;;
13933;SDS011;7039;52.168;9.866;2023-07-31T03:47:56;3.37;;;1.57;;
13933;SDS011;7039;52.168;9.866;2023-07-31T03:50:22;1.10;;;1.00;;
13933;SDS011;7039;52.168;9.866;2023-07-31T04:16:08;1.10;;;0.80;;
13933;SDS011;7039;52.168;9.866;2023-07-31T04:18:34;1.77;;;1.00;;
13933;SDS011;7039;52.168;9.866;2023-07-31T04:21:02;1.13;;;0.70;;
13933;SDS011;7039;52.168;9.866;2023-07-31T04:23:28;0.60;;;0.60;;
13933;SDS011;7039;52.168;9.866;2023-07-31T04:25:55;1.30;;;0.70;;
13933;SDS011;7039;52.168;9.866;2023-07-31T04:28:22;1.20;;;0.60;;
13933;SDS011;7039;52.168;9.866;2023-07-31T05:12:22;5.93;;;3.53;;
13933;SDS011;7039;52.168;9.866;2023-07-31T05:14:53;8.40;;;3.60;;
13933;SDS011;7039;52.168;9.866;2023-07-31T05:18:23;9.10;;;4.60;;
13933;SDS011;7039;52.168;9.866;2023-07-31T05:25:31;10.43;;;5.60;;
13933;SDS011;7039;52.168;9.866;2023-07-31T08:10:58;15.97;;;6.47;;
13933;SDS011;7039;52.168;9.866;2023-07-31T08:13:25;16.43;;;8.07;;
13933;SDS011;7039;52.168;9.866;2023-07-31T08:31:54;12.73;;;6.40;;
13933;SDS011;7039;52.168;9.866;2023-07-31T08:34:21;9.87;;;5.73;;
13933;SDS011;7039;52.168;9.866;2023-07-31T08:36:57;10.00;;;4.70;;
13933;SDS011;7039;52.168;9.866;2023-07-31T08:39:24;7.33;;;4.50;;
13933;SDS011;7039;52.168;9.866;2023-07-31T08:41:51;9.33;;;4.37;;
13933;SDS011;7039;52.168;9.866;2023-07-31T08:44:18;10.33;;;4.50;;
13933;SDS011;7039;52.168;9.866;2023-07-31T08:47:16;11.93;;;4.43;;
13933;SDS011;7039;52.168;9.866;2023-07-31T08:49:45;10.27;;;4.83;;
13933;SDS011;7039;52.168;9.866;2023-07-31T08:52:13;9.77;;;4.00;;
13933;SDS011;7039;52.168;9.866;2023-07-31T08:54:39;13.50;;;5.30;;
13933;SDS011;7039;52.168;9.866;2023-07-31T08:57:06;7.57;;;4.33;;
13933;SDS011;7039;52.168;9.866;2023-07-31T08:59:34;9.80;;;4.40;;
13933;SDS011;7039;52.168;9.866;2023-07-31T09:02:41;8.53;;;3.97;;
13933;SDS011;7039;52.168;9.866;2023-07-31T09:08:31;6.60;;;3.60;;
13933;SDS011;7039;52.168;9.866;2023-07-31T09:10:59;10.47;;;4.60;;
13933;SDS011;7039;52.168;9.866;2023-07-31T09:13:27;6.10;;;2.93;;
13933;SDS011;7039;52.168;9.866;2023-07-31T09:15:54;7.63;;;3.10;;
13933;SDS011;7039;52.168;9.866;2023-07-31T09:18:22;3.70;;;2.50;;
13933;SDS011;7039;52.168;9.866;2023-07-31T09:20:59;4.07;;;2.70;;
13933;SDS011;7039;52.168;9.866;2023-07-31T09:23:26;3.47;;;2.50;;
13933;SDS011;7039;52.168;9.866;2023-07-31T09:26:06;2.93;;;2.20;;
13933;SDS011;7039;52.168;9.866;2023-07-31T09:28:33;2.60;;;2.17;;
13933;SDS011;7039;52.168;9.866;2023-07-31T09:37:16;6.13;;;2.80;;
13933;SDS011;7039;52.168;9.866;2023-07-31T09:40:11;6.37;;;3.33;;
13933;SDS011;7039;52.168;9.866;2023-07-31T09:46:01;4.53;;;2.93;;
13933;SDS011;7039;52.168;9.866;2023-07-31T09:48:28;5.10;;;3.13;;
13933;SDS011;7039;52.168;9.866;2023-07-31T09:50:55;4.70;;;2.60;;
13933;SDS011;7039;52.168;9.866;2023-07-31T09:53:28;3.77;;;2.67;;
13933;SDS011;7039;52.168;9.866;2023-07-31T09:55:58;3.37;;;2.60;;
13933;SDS011;7039;52.168;9.866;2023-07-31T09:58:25;5.40;;;3.20;;
13933;SDS011;7039;52.168;9.866;2023-07-31T10:00:55;3.87;;;2.37;;
13933;SDS011;7039;52.168;9.866;2023-07-31T10:03:24;3.60;;;2.83;;
13933;SDS011;7039;52.168;9.866;2023-07-31T10:05:52;4.40;;;2.73;;
13933;SDS011;7039;52.168;9.866;2023-07-31T10:08:21;4.90;;;2.63;;
13933;SDS011;7039;52.168;9.866;2023-07-31T10:10:55;3.13;;;2.30;;
13933;SDS011;7039;52.168;9.866;2023-07-31T10:13:24;3.37;;;2.50;;
13933;SDS011;7039;52.168;9.866;2023-07-31T10:15:53;3.77;;;2.70;;
13933;SDS011;7039;52.168;9.866;2023-07-31T10:18:21;3.93;;;2.83;;
13933;SDS011;7039;52.168;9.866;2023-07-31T10:20:47;3.17;;;2.30;;
13933;SDS011;7039;52.168;9.866;2023-07-31T10:23:15;4.80;;;3.20;;
13933;SDS011;7039;52.168;9.866;2023-07-31T10:25:42;6.70;;;2.90;;
13933;SDS011;7039;52.168;9.866;2023-07-31T10:28:10;5.00;;;3.07;;
13933;SDS011;7039;52.168;9.866;2023-07-31T10:30:37;4.43;;;2.90;;
13933;SDS011;7039;52.168;9.866;2023-07-31T10:33:05;3.67;;;3.00;;
13933;SDS011;7039;52.168;9.866;2023-07-31T10:35:33;5.00;;;2.90;;
13933;SDS011;7039;52.168;9.866;2023-07-31T10:38:09;4.43;;;2.90;;
13933;SDS011;7039;52.168;9.866;2023-07-31T10:40:36;3.93;;;2.53;;
13933;SDS011;7039;52.168;9.866;2023-07-31T10:43:03;3.43;;;2.30;;
13933;SDS011;7039;52.168;9.866;2023-07-31T10:45:35;5.73;;;2.53;;
13933;SDS011;7039;52.168;9.866;2023-07-31T10:48:03;3.87;;;2.50;;
13933;SDS011;7039;52.168;9.866;2023-07-31T10:50:31;7.07;;;2.90;;
13933;SDS011;7039;52.168;9.866;2023-07-31T10:52:58;6.47;;;2.60;;
13933;SDS011;7039;52.168;9.866;2023-07-31T10:55:27;3.87;;;2.70;;
13933;SDS011;7039;52.168;9.866;2023-07-31T10:57:55;5.07;;;2.37;;
13933;SDS011;7039;52.168;9.866;2023-07-31T11:00:24;4.70;;;2.67;;
13933;SDS011;7039;52.168;9.866;2023-07-31T11:02:57;4.57;;;2.50;;
13933;SDS011;7039;52.168;9.866;2023-07-31T11:08:28;5.60;;;2.93;;
13933;SDS011;7039;52.168;9.866;2023-07-31T11:11:04;4.80;;;2.43;;
13933;SDS011;7039;52.168;9.866;2023-07-31T11:13:32;5.10;;;2.33;;
13933;SDS011;7039;52.168;9.866;2023-07-31T11:16:00;4.67;;;2.80;;
13933;SDS011;7039;52.168;9.866;2023-07-31T11:18:28;3.10;;;1.83;;
13933;SDS011;7039;52.168;9.866;2023-07-31T11:20:54;3.47;;;2.30;;
13933;SDS011;7039;52.168;9.866;2023-07-31T11:23:21;4.90;;;3.17;;
13933;SDS011;7039;52.168;9.866;2023-07-31T11:25:48;2.57;;;2.17;;
13933;SDS011;7039;52.168;9.866;2023-07-31T11:28:16;5.07;;;2.77;;
13933;SDS011;7039;52.168;9.866;2023-07-31T11:30:45;4.00;;;2.17;;
13933;SDS011;7039;52.168;9.866;2023-07-31T11:33:12;3.47;;;2.30;;
13933;SDS011;7039;52.168;9.866;2023-07-31T11:35:42;3.60;;;2.20;;
13933;SDS011;7039;52.168;9.866;2023-07-31T11:38:10;3.60;;;2.40;;
13933;SDS011;7039;52.168;9.866;2023-07-31T11:40:40;3.13;;;2.27;;
13933;SDS011;7039;52.168;9.866;2023-07-31T11:43:07;2.77;;;2.47;;
13933;SDS011;7039;52.168;9.866;2023-07-31T11:45:34;2.33;;;1.90;;
13933;SDS011;7039;52.168;9.866;2023-07-31T11:48:01;4.47;;;2.00;;
13933;SDS011;7039;52.168;9.866;2023-07-31T11:50:28;2.03;;;1.67;;
13933;SDS011;7039;52.168;9.866;2023-07-31T11:52:57;2.50;;;1.97;;
13933;SDS011;7039;52.168;9.866;2023-07-31T11:55:26;4.03;;;2.17;;
13933;SDS011;7039;52.168;9.866;2023-07-31T11:57:54;2.50;;;2.10;;
13933;SDS011;7039;52.168;9.866;2023-07-31T12:00:23;3.70;;;1.97;;
13933;SDS011;7039;52.168;9.866;2023-07-31T12:02:50;6.83;;;2.00;;
13933;SDS011;7039;52.168;9.866;2023-07-31T12:05:17;4.03;;;2.67;;
13933;SDS011;7039;52.168;9.866;2023-07-31T12:07:45;6.90;;;1.97;;
13933;SDS011;7039;52.168;9.866;2023-07-31T12:10:23;3.77;;;2.00;;
13933;SDS011;7039;52.168;9.866;2023-07-31T12:12:58;6.67;;;2.00;;
13933;SDS011;7039;52.168;9.866;2023-07-31T12:15:30;2.47;;;2.07;;
13933;SDS011;7039;52.168;9.866;2023-07-31T12:18:00;3.53;;;2.00;;
13933;SDS011;7039;52.168;9.866;2023-07-31T12:20:26;3.13;;;2.07;;
13933;SDS011;7039;52.168;9.866;2023-07-31T12:22:55;3.10;;;1.80;;
13933;SDS011;7039;52.168;9.866;2023-07-31T12:25:25;2.73;;;2.07;;
13933;SDS011;7039;52.168;9.866;2023-07-31T12:27:55;2.77;;;2.20;;
13933;SDS011;7039;52.168;9.866;2023-07-31T12:30:28;5.83;;;2.50;;
13933;SDS011;7039;52.168;9.866;2023-07-31T12:32:55;4.37;;;1.93;;
13933;SDS011;7039;52.168;9.866;2023-07-31T12:35:21;2.40;;;1.77;;
13933;SDS011;7039;52.168;9.866;2023-07-31T12:37:48;4.27;;;2.00;;
13933;SDS011;7039;52.168;9.866;2023-07-31T12:40:14;3.33;;;1.70;;
13933;SDS011;7039;52.168;9.866;2023-07-31T12:42:42;3.57;;;1.60;;
13933;SDS011;7039;52.168;9.866;2023-07-31T12:45:09;2.20;;;1.70;;
13933;SDS011;7039;52.168;9.866;2023-07-31T12:47:35;6.00;;;2.43;;
13933;SDS011;7039;52.168;9.866;2023-07-31T12:50:02;4.93;;;1.77;;
13933;SDS011;7039;52.168;9.866;2023-07-31T12:52:28;1.90;;;1.53;;
13933;SDS011;7039;52.168;9.866;2023-07-31T12:54:55;1.70;;;1.50;;
13933;SDS011;7039;52.168;9.866;2023-07-31T12:57:21;1.97;;;1.17;;
13933;SDS011;7039;52.168;9.866;2023-07-31T12:59:49;1.63;;;1.20;;
13933;SDS011;7039;52.168;9.866;2023-07-31T13:02:15;0.93;;;0.87;;
13933;SDS011;7039;52.168;9.866;2023-07-31T13:04:42;1.40;;;1.10;;
13933;SDS011;7039;52.168;9.866;2023-07-31T13:07:08;3.17;;;1.20;;
13933;SDS011;7039;52.168;9.866;2023-07-31T13:09:35;1.33;;;0.90;;
13933;SDS011;7039;52.168;9.866;2023-07-31T13:12:01;0.93;;;0.93;;
13933;SDS011;7039;52.168;9.866;2023-07-31T13:14:28;1.47;;;0.90;;
13933;SDS011;7039;52.168;9.866;2023-07-31T13:16:55;1.43;;;1.00;;
13933;SDS011;7039;52.168;9.866;2023-07-31T13:19:22;2.70;;;0.80;;
13933;SDS011;7039;52.168;9.866;2023-07-31T13:21:49;2.17;;;1.20;;
13933;SDS011;7039;52.168;9.866;2023-07-31T13:24:15;0.70;;;0.70;;
13933;SDS011;7039;52.168;9.866;2023-07-31T13:26:41;0.70;;;0.70;;
13933;SDS011;7039;52.168;9.866;2023-07-31T13:29:08;1.10;;;0.90;;
13933;SDS011;7039;52.168;9.866;2023-07-31T13:31:35;1.00;;;0.90;;
13933;SDS011;7039;52.168;9.866;2023-07-31T13:34:03;1.13;;;0.70;;
13933;SDS011;7039;52.168;9.866;2023-07-31T13:36:30;1.00;;;0.90;;
13933;SDS011;7039;52.168;9.866;2023-07-31T13:38:56;1.23;;;0.97;;
13933;SDS011;7039;52.168;9.866;2023-07-31T13:41:23;1.23;;;0.67;;
13933;SDS011;7039;52.168;9.866;2023-07-31T13:43:49;0.83;;;0.53;;
13933;SDS011;7039;52.168;9.866;2023-07-31T13:46:15;0.80;;;0.80;;
13933;SDS011;7039;52.168;9.866;2023-07-31T13:48:42;2.30;;;0.80;;
13933;SDS011;7039;52.168;9.866;2023-07-31T13:51:10;0.90;;;0.70;;
13933;SDS011;7039;52.168;9.866;2023-07-31T13:53:36;0.93;;;0.77;;
13933;SDS011;7039;52.168;9.866;2023-07-31T13:56:03;6.47;;;1.20;;
13933;SDS011;7039;52.168;9.866;2023-07-31T13:58:30;0.70;;;0.63;;
13933;SDS011;7039;52.168;9.866;2023-07-31T14:00:56;0.80;;;0.70;;
13933;SDS011;7039;52.168;9.866;2023-07-31T14:03:22;0.60;;;0.60;;
13933;SDS011;7039;52.168;9.866;2023-07-31T14:05:49;0.77;;;0.77;;
13933;SDS011;7039;52.168;9.866;2023-07-31T14:08:17;0.80;;;0.80;;
13933;SDS011;7039;52.168;9.866;2023-07-31T14:10:44;1.20;;;0.70;;
13933;SDS011;7039;52.168;9.866;2023-07-31T14:13:10;1.00;;;0.83;;
13933;SDS011;7039;52.168;9.866;2023-07-31T14:15:36;1.53;;;0.70;;
13933;SDS011;7039;52.168;9.866;2023-07-31T14:18:03;1.27;;;0.70;;
13933;SDS011;7039;52.168;9.866;2023-07-31T14:20:29;0.70;;;0.70;;
13933;SDS011;7039;52.168;9.866;2023-07-31T14:22:56;0.90;;;0.90;;
13933;SDS011;7039;52.168;9.866;2023-07-31T14:25:25;0.70;;;0.70;;
13933;SDS011;7039;52.168;9.866;2023-07-31T14:27:51;1.10;;;0.80;;
13933;SDS011;7039;52.168;9.866;2023-07-31T14:30:18;1.13;;;0.70;;
13933;SDS011;7039;52.168;9.866;2023-07-31T14:32:45;2.40;;;0.67;;
13933;SDS011;7039;52.168;9.866;2023-07-31T14:35:11;1.40;;;0.80;;
13933;SDS011;7039;52.168;9.866;2023-07-31T14:37:38;1.07;;;0.80;;
13933;SDS011;7039;52.168;9.866;2023-07-31T14:40:06;2.13;;;1.10;;
13933;SDS011;7039;52.168;9.866;2023-07-31T14:42:35;1.20;;;1.10;;
13933;SDS011;7039;52.168;9.866;2023-07-31T14:45:01;1.60;;;1.10;;
13933;SDS011;7039;52.168;9.866;2023-07-31T14:47:28;0.93;;;0.90;;
13933;SDS011;7039;52.168;9.866;2023-07-31T14:49:56;1.67;;;1.30;;
13933;SDS011;7039;52.168;9.866;2023-07-31T14:52:22;1.27;;;1.13;;
13933;SDS011;7039;52.168;9.866;2023-07-31T14:54:49;1.87;;;1.47;;
13933;SDS011;7039;52.168;9.866;2023-07-31T14:57:15;5.30;;;1.60;;
13933;SDS011;7039;52.168;9.866;2023-07-31T14:59:43;1.20;;;1.10;;
13933;SDS011;7039;52.168;9.866;2023-07-31T15:02:11;1.40;;;1.30;;
13933;SDS011;7039;52.168;9.866;2023-07-31T15:04:38;1.57;;;1.33;;
13933;SDS011;7039;52.168;9.866;2023-07-31T15:07:05;1.90;;;1.70;;
13933;SDS011;7039;52.168;9.866;2023-07-31T15:09:31;1.60;;;1.50;;
13933;SDS011;7039;52.168;9.866;2023-07-31T15:11:58;2.00;;;1.80;;
13933;SDS011;7039;52.168;9.866;2023-07-31T15:14:25;2.93;;;1.90;;
13933;SDS011;7039;52.168;9.866;2023-07-31T15:16:53;3.93;;;1.93;;
13933;SDS011;7039;52.168;9.866;2023-07-31T15:19:20;2.63;;;2.03;;
13933;SDS011;7039;52.168;9.866;2023-07-31T15:21:47;1.97;;;1.87;;
13933;SDS011;7039;52.168;9.866;2023-07-31T15:24:14;2.20;;;1.60;;
13933;SDS011;7039;52.168;9.866;2023-07-31T15:26:40;5.07;;;1.70;;
13933;SDS011;7039;52.168;9.866;2023-07-31T15:29:07;3.20;;;2.10;;
13933;SDS011;7039;52.168;9.866;2023-07-31T15:31:36;2.37;;;1.87;;
13933;SDS011;7039;52.168;9.866;2023-07-31T15:34:04;2.07;;;1.87;;
13933;SDS011;7039;52.168;9.866;2023-07-31T15:36:30;2.93;;;1.80;;
13933;SDS011;7039;52.168;9.866;2023-07-31T15:38:57;2.37;;;1.80;;
13933;SDS011;7039;52.168;9.866;2023-07-31T15:41:23;2.30;;;1.53;;
13933;SDS011;7039;52.168;9.866;2023-07-31T15:43:51;3.00;;;1.80;;
13933;SDS011;7039;52.168;9.866;2023-07-31T15:46:17;2.37;;;1.50;;
13933;SDS011;7039;52.168;9.866;2023-07-31T15:48:44;3.27;;;1.50;;
13933;SDS011;7039;52.168;9.866;2023-07-31T15:51:12;1.97;;;1.50;;
13933;SDS011;7039;52.168;9.866;2023-07-31T15:53:39;2.77;;;1.70;;
13933;SDS011;7039;52.168;9.866;2023-07-31T15:56:06;4.70;;;1.30;;
13933;SDS011;7039;52.168;9.866;2023-07-31T15:58:32;1.33;;;1.23;;
13933;SDS011;7039;52.168;9.866;2023-07-31T16:00:59;1.40;;;1.30;;
13933;SDS011;7039;52.168;9.866;2023-07-31T16:03:25;1.70;;;1.20;;
13933;SDS011;7039;52.168;9.866;2023-07-31T16:05:51;1.30;;;1.20;;
13933;SDS011;7039;52.168;9.866;2023-07-31T16:08:19;1.53;;;1.20;;
13933;SDS011;7039;52.168;9.866;2023-07-31T16:10:46;3.17;;;1.43;;
13933;SDS011;7039;52.168;9.866;2023-07-31T16:13:12;2.60;;;1.63;;
13933;SDS011;7039;52.168;9.866;2023-07-31T16:15:39;1.30;;;1.20;;
13933;SDS011;7039;52.168;9.866;2023-07-31T16:18:05;2.17;;;1.60;;
13933;SDS011;7039;52.168;9.866;2023-07-31T16:20:32;1.60;;;1.50;;
13933;SDS011;7039;52.168;9.866;2023-07-31T16:22:58;1.87;;;1.37;;
13933;SDS011;7039;52.168;9.866;2023-07-31T16:25:26;4.10;;;1.50;;
13933;SDS011;7039;52.168;9.866;2023-07-31T16:27:53;2.37;;;1.57;;
13933;SDS011;7039;52.168;9.866;2023-07-31T16:30:19;2.50;;;1.30;;
13933;SDS011;7039;52.168;9.866;2023-07-31T16:32:46;1.47;;;1.30;;
13933;SDS011;7039;52.168;9.866;2023-07-31T16:35:14;1.53;;;1.40;;
13933;SDS011;7039;52.168;9.866;2023-07-31T16:37:41;1.70;;;1.30;;
13933;SDS011;7039;52.168;9.866;2023-07-31T16:40:09;1.33;;;1.23;;
13933;SDS011;7039;52.168;9.866;2023-07-31T16:42:37;1.40;;;1.30;;
13933;SDS011;7039;52.168;9.866;2023-07-31T16:45:04;3.67;;;1.60;;
13933;SDS011;7039;52.168;9.866;2023-07-31T16:47:31;1.83;;;1.20;;
13933;SDS011;7039;52.168;9.866;2023-07-31T16:49:58;1.83;;;1.30;;
13933;SDS011;7039;52.168;9.866;2023-07-31T16:52:24;1.30;;;1.20;;
13933;SDS011;7039;52.168;9.866;2023-07-31T16:54:52;2.80;;;1.40;;
13933;SDS011;7039;52.168;9.866;2023-07-31T16:57:18;1.50;;;1.40;;
13933;SDS011;7039;52.168;9.866;2023-07-31T16:59:48;1.50;;;1.40;;
13933;SDS011;7039;52.168;9.866;2023-07-31T17:02:14;2.43;;;1.73;;
13933;SDS011;7039;52.168;9.866;2023-07-31T17:04:41;1.70;;;1.60;;
13933;SDS011;7039;52.168;9.866;2023-07-31T17:07:07;2.00;;;1.80;;
13933;SDS011;7039;52.168;9.866;2023-07-31T17:09:34;3.03;;;1.70;;
13933;SDS011;7039;52.168;9.866;2023-07-31T17:12:00;2.00;;;1.80;;
13933;SDS011;7039;52.168;9.866;2023-07-31T17:14:28;1.83;;;1.67;;
13933;SDS011;7039;52.168;9.866;2023-07-31T17:16:56;4.33;;;2.00;;
13933;SDS011;7039;52.168;9.866;2023-07-31T17:19:22;2.27;;;1.93;;
13933;SDS011;7039;52.168;9.866;2023-07-31T17:21:49;3.17;;;1.90;;
13933;SDS011;7039;52.168;9.866;2023-07-31T17:24:15;2.77;;;2.00;;
13933;SDS011;7039;52.168;9.866;2023-07-31T17:26:41;2.83;;;1.87;;
13933;SDS011;7039;52.168;9.866;2023-07-31T17:29:10;3.67;;;2.27;;
13933;SDS011;7039;52.168;9.866;2023-07-31T17:31:37;2.53;;;2.33;;
13933;SDS011;7039;52.168;9.866;2023-07-31T17:34:07;2.67;;;2.43;;
13933;SDS011;7039;52.168;9.866;2023-07-31T17:36:35;2.73;;;2.30;;
13933;SDS011;7039;52.168;9.866;2023-07-31T17:39:01;3.07;;;2.37;;
13933;SDS011;7039;52.168;9.866;2023-07-31T17:41:28;2.27;;;1.83;;
13933;SDS011;7039;52.168;9.866;2023-07-31T17:43:56;2.83;;;2.27;;
13933;SDS011;7039;52.168;9.866;2023-07-31T17:46:22;6.70;;;2.57;;
13933;SDS011;7039;52.168;9.866;2023-07-31T17:48:49;2.70;;;1.97;;
13933;SDS011;7039;52.168;9.866;2023-07-31T17:51:16;3.97;;;2.63;;
13933;SDS011;7039;52.168;9.866;2023-07-31T17:53:43;4.07;;;2.60;;
13933;SDS011;7039;52.168;9.866;2023-07-31T17:56:09;4.33;;;2.30;;
13933;SDS011;7039;52.168;9.866;2023-07-31T17:58:36;2.30;;;2.10;;
13933;SDS011;7039;52.168;9.866;2023-07-31T18:01:02;3.00;;;2.27;;
13933;SDS011;7039;52.168;9.866;2023-07-31T18:03:29;4.40;;;2.13;;
13933;SDS011;7039;52.168;9.866;2023-07-31T18:05:55;5.37;;;2.17;;
13933;SDS011;7039;52.168;9.866;2023-07-31T18:08:23;3.20;;;2.30;;
13933;SDS011;7039;52.168;9.866;2023-07-31T18:10:49;2.50;;;2.30;;
13933;SDS011;7039;52.168;9.866;2023-07-31T18:13:16;2.87;;;2.40;;
13933;SDS011;7039;52.168;9.866;2023-07-31T18:15:43;4.57;;;2.43;;
13933;SDS011;7039;52.168;9.866;2023-07-31T18:18:10;2.67;;;2.40;;
13933;SDS011;7039;52.168;9.866;2023-07-31T18:20:36;4.70;;;2.10;;
13933;SDS011;7039;52.168;9.866;2023-07-31T18:23:03;3.67;;;2.37;;
13933;SDS011;7039;52.168;9.866;2023-07-31T18:25:30;2.73;;;2.40;;
13933;SDS011;7039;52.168;9.866;2023-07-31T18:27:57;3.20;;;2.50;;
13933;SDS011;7039;52.168;9.866;2023-07-31T18:30:23;3.37;;;2.63;;
13933;SDS011;7039;52.168;9.866;2023-07-31T18:32:50;6.00;;;2.50;;
13933;SDS011;7039;52.168;9.866;2023-07-31T18:35:16;2.87;;;2.30;;
13933;SDS011;7039;52.168;9.866;2023-07-31T18:37:44;4.27;;;2.33;;
13933;SDS011;7039;52.168;9.866;2023-07-31T18:40:11;2.57;;;2.30;;
13933;SDS011;7039;52.168;9.866;2023-07-31T18:42:39;2.60;;;2.37;;
13933;SDS011;7039;52.168;9.866;2023-07-31T18:45:05;3.77;;;3.03;;
13933;SDS011;7039;52.168;9.866;2023-07-31T18:47:33;3.30;;;2.60;;
13933;SDS011;7039;52.168;9.866;2023-07-31T18:49:59;4.07;;;2.77;;
13933;SDS011;7039;52.168;9.866;2023-07-31T18:52:26;3.63;;;2.53;;
13933;SDS011;7039;52.168;9.866;2023-07-31T18:54:53;5.37;;;2.80;;
13933;SDS011;7039;52.168;9.866;2023-07-31T18:57:19;4.90;;;2.40;;
13933;SDS011;7039;52.168;9.866;2023-07-31T18:59:47;2.43;;;2.23;;
13933;SDS011;7039;52.168;9.866;2023-07-31T19:02:14;7.37;;;2.70;;
13933;SDS011;7039;52.168;9.866;2023-07-31T19:04:40;3.13;;;2.27;;
13933;SDS011;7039;52.168;9.866;2023-07-31T19:07:06;3.73;;;2.67;;
13933;SDS011;7039;52.168;9.866;2023-07-31T19:09:33;3.87;;;2.50;;
13933;SDS011;7039;52.168;9.866;2023-07-31T19:12:00;3.03;;;2.63;;
13933;SDS011;7039;52.168;9.866;2023-07-31T19:14:27;3.03;;;2.70;;
13933;SDS011;7039;52.168;9.866;2023-07-31T19:16:54;3.43;;;2.67;;
13933;SDS011;7039;52.168;9.866;2023-07-31T19:19:21;4.70;;;3.00;;
13933;SDS011;7039;52.168;9.866;2023-07-31T19:21:48;3.53;;;2.60;;
13933;SDS011;7039;52.168;9.866;2023-07-31T19:24:14;3.50;;;2.57;;
13933;SDS011;7039;52.168;9.866;2023-07-31T19:26:41;10.43;;;2.83;;
13933;SDS011;7039;52.168;9.866;2023-07-31T19:29:08;4.80;;;2.53;;